Time;durP1;ratioP1;P1;durP2;ratioP2;P2;SDS_P1;SDS_P2;PMS_P1;PMS_P2;Temp;Humidity;BMP_temperature;BMP_pressure;BME280_temperature;BME280_humidity;BME280_pressure;Samples;Min_cycle;Max_cycle;Signal;HPM_P1;HPM_P2
2022/01/08 05:01:30;;;;;;;9.05;7.43;;;2.90;99.90;;;;;;5385962;23;20243;-70
2022/01/08 05:03:57;;;;;;;10.38;7.93;;;2.90;99.90;;;;;;4901449;29;20214;-70
2022/01/08 05:06:24;;;;;;;9.35;8.32;;;2.90;99.90;;;;;;4897250;29;20238;-70
2022/01/08 05:08:50;;;;;;;8.93;7.22;;;3.00;99.90;;;;;;4897636;29;20234;-71
2022/01/08 05:11:17;;;;;;;10.15;7.32;;;2.90;99.90;;;;;;4888019;29;20227;-70
2022/01/08 05:13:45;;;;;;;8.55;6.65;;;2.90;99.90;;;;;;4878526;29;20294;-70
2022/01/08 05:16:11;;;;;;;12.40;7.07;;;2.90;99.90;;;;;;4877633;29;20669;-69
2022/01/08 05:18:40;;;;;;;13.27;8.55;;;2.90;99.90;;;;;;4876483;29;20212;-70
2022/01/08 05:21:14;;;;;;;10.15;6.85;;;2.80;99.90;;;;;;4877472;29;20311;-69
2022/01/08 05:23:41;;;;;;;10.50;7.55;;;2.80;99.90;;;;;;4878480;29;20263;-69
2022/01/08 05:26:07;;;;;;;11.15;7.93;;;2.80;99.90;;;;;;4878058;29;20668;-70
2022/01/08 05:28:34;;;;;;;10.88;7.97;;;2.70;99.90;;;;;;4877515;29;20204;-70
2022/01/08 05:31:01;;;;;;;11.25;8.02;;;2.80;99.90;;;;;;4877139;29;20231;-70
2022/01/08 05:33:27;;;;;;;9.43;7.70;;;2.80;99.90;;;;;;4865807;29;20216;-69
2022/01/08 05:35:56;;;;;;;12.05;8.65;;;2.80;99.90;;;;;;4870063;29;20256;-70
2022/01/08 05:38:22;;;;;;;12.00;7.55;;;2.80;99.90;;;;;;4878605;29;20227;-70
2022/01/08 05:40:49;;;;;;;10.60;8.48;;;2.80;99.90;;;;;;4877603;29;20603;-69
2022/01/08 05:43:16;;;;;;;11.55;9.15;;;2.80;99.90;;;;;;4877899;29;20680;-70
2022/01/08 05:45:42;;;;;;;12.25;8.82;;;2.80;99.90;;;;;;4877693;29;20220;-70
2022/01/08 05:48:09;;;;;;;11.55;7.78;;;2.70;99.90;;;;;;4869833;29;20742;-68
2022/01/08 05:50:36;;;;;;;11.93;8.65;;;2.70;99.90;;;;;;4865251;29;20231;-68
2022/01/08 05:53:04;;;;;;;13.20;8.43;;;2.70;99.90;;;;;;4877373;29;20557;-69
2022/01/08 05:55:31;;;;;;;12.88;7.80;;;2.80;99.90;;;;;;4878138;29;20613;-69
2022/01/08 05:57:58;;;;;;;12.45;8.40;;;2.80;99.90;;;;;;4877507;29;20196;-69
2022/01/08 06:00:25;;;;;;;15.30;9.55;;;2.80;99.90;;;;;;4876439;29;20581;-69
2022/01/08 06:02:51;;;;;;;14.40;7.82;;;2.80;99.90;;;;;;4877621;29;20734;-69
2022/01/08 06:05:18;;;;;;;12.15;7.82;;;2.80;99.90;;;;;;4877151;29;20733;-69
2022/01/08 06:07:44;;;;;;;12.05;7.90;;;2.80;99.90;;;;;;4882297;29;20232;-69
2022/01/08 06:10:13;;;;;;;12.20;8.77;;;2.80;99.90;;;;;;4873857;29;20208;-69
2022/01/08 06:12:39;;;;;;;9.23;7.95;;;2.80;99.90;;;;;;4875784;29;20571;-70
2022/01/08 06:15:06;;;;;;;15.77;9.43;;;2.80;99.90;;;;;;4876517;29;20203;-69
2022/01/08 06:17:33;;;;;;;10.90;7.97;;;2.90;99.90;;;;;;4877101;29;20211;-69
2022/01/08 06:20:00;;;;;;;15.73;10.32;;;2.90;99.90;;;;;;4877422;29;20283;-69
2022/01/08 06:22:26;;;;;;;13.68;9.35;;;2.90;99.90;;;;;;4877517;29;20231;-68
2022/01/08 06:24:53;;;;;;;12.40;9.07;;;2.90;99.90;;;;;;4863569;29;20208;-69
2022/01/08 06:27:21;;;;;;;12.68;8.50;;;2.90;99.90;;;;;;4877500;29;20231;-70
2022/01/08 06:29:48;;;;;;;18.25;9.90;;;2.90;99.90;;;;;;4876651;29;20211;-70
2022/01/08 06:32:15;;;;;;;9.57;8.30;;;2.90;99.90;;;;;;4870480;29;20318;-70
2022/01/08 06:34:41;;;;;;;9.82;7.82;;;2.90;99.90;;;;;;4874774;29;20227;-71
2022/01/08 06:37:08;;;;;;;10.02;8.43;;;2.90;99.90;;;;;;4877347;29;20216;-70
2022/01/08 06:39:35;;;;;;;10.57;6.88;;;2.90;99.90;;;;;;4875544;29;20215;-69
2022/01/08 06:42:02;;;;;;;10.65;8.65;;;2.90;99.90;;;;;;4877075;29;20228;-70
2022/01/08 06:44:30;;;;;;;11.80;8.02;;;2.90;99.90;;;;;;4875636;29;20661;-70
2022/01/08 06:46:57;;;;;;;14.52;7.65;;;2.90;99.90;;;;;;4876846;29;20239;-70
2022/01/08 06:49:24;;;;;;;14.50;8.75;;;2.90;99.90;;;;;;4876673;29;20698;-69
2022/01/08 06:51:51;;;;;;;11.55;7.30;;;2.90;99.90;;;;;;4878384;29;20235;-70
2022/01/08 06:54:18;;;;;;;14.20;8.25;;;3.00;99.90;;;;;;4884985;29;20291;-70
2022/01/08 06:56:44;;;;;;;12.70;7.97;;;3.00;99.90;;;;;;4876654;29;20204;-69
2022/01/08 06:59:11;;;;;;;10.68;8.65;;;3.00;99.90;;;;;;4873175;29;20599;-69
2022/01/08 07:01:39;;;;;;;12.77;8.10;;;2.90;99.90;;;;;;4873721;29;20236;-69
2022/01/08 07:04:06;;;;;;;9.32;8.00;;;3.00;99.90;;;;;;4882416;29;20204;-70
2022/01/08 07:06:32;;;;;;;11.80;9.10;;;3.00;99.90;;;;;;4871466;29;20696;-69
2022/01/08 07:08:59;;;;;;;13.85;8.68;;;3.00;99.90;;;;;;4876412;29;20216;-70
2022/01/08 07:11:26;;;;;;;12.57;8.48;;;3.00;99.90;;;;;;4876562;29;20239;-70
2022/01/08 07:13:52;;;;;;;11.52;8.48;;;3.00;99.90;;;;;;4876330;29;20238;-70
2022/01/08 07:16:19;;;;;;;13.82;9.75;;;3.00;99.90;;;;;;4868134;29;20212;-70
2022/01/08 07:18:47;;;;;;;16.75;10.38;;;3.00;99.90;;;;;;4882464;29;20212;-69
2022/01/08 07:21:14;;;;;;;12.57;8.73;;;3.00;99.90;;;;;;4877291;29;20280;-69
2022/01/08 07:23:40;;;;;;;20.52;10.55;;;3.00;99.90;;;;;;4876661;29;20351;-70
2022/01/08 07:26:07;;;;;;;15.07;9.57;;;3.00;99.90;;;;;;4873153;29;20264;-70
2022/01/08 07:28:34;;;;;;;14.27;9.77;;;3.00;99.90;;;;;;4876690;29;20216;-70
2022/01/08 07:31:00;;;;;;;15.73;9.43;;;3.00;99.90;;;;;;4873021;29;20228;-70
2022/01/08 07:33:27;;;;;;;13.63;9.50;;;3.00;99.90;;;;;;4876844;29;20650;-70
2022/01/08 07:35:55;;;;;;;15.93;10.00;;;3.00;99.90;;;;;;4861927;29;20706;-70
2022/01/08 07:38:22;;;;;;;12.55;8.88;;;3.00;99.90;;;;;;4858716;29;20280;-70
2022/01/08 07:40:51;;;;;;;17.17;10.13;;;3.10;99.90;;;;;;4874401;29;20224;-70
2022/01/08 07:43:17;;;;;;;14.10;9.15;;;3.10;99.90;;;;;;4877929;29;20224;-70
2022/01/08 07:45:44;;;;;;;15.40;10.60;;;3.10;99.90;;;;;;4879461;29;20212;-70
2022/01/08 07:48:11;;;;;;;13.77;9.00;;;3.10;99.90;;;;;;4880443;29;20258;-71
2022/01/08 07:50:37;;;;;;;15.35;9.73;;;3.10;99.90;;;;;;4879626;29;20800;-70
2022/01/08 07:53:05;;;;;;;15.68;7.85;;;3.10;99.90;;;;;;4879810;29;20697;-69
2022/01/08 07:55:32;;;;;;;18.83;11.48;;;3.10;99.90;;;;;;4870221;29;20603;-70
2022/01/08 07:57:59;;;;;;;17.48;10.48;;;3.20;99.90;;;;;;4865915;29;20208;-69
2022/01/08 08:00:25;;;;;;;16.70;11.30;;;3.10;99.90;;;;;;4870111;29;20241;-69
2022/01/08 08:02:52;;;;;;;14.10;9.63;;;3.10;99.90;;;;;;4872684;29;20208;-69
2022/01/08 08:05:19;;;;;;;18.27;11.20;;;3.10;99.90;;;;;;4861677;29;20212;-69
2022/01/08 08:07:46;;;;;;;14.20;9.13;;;3.10;99.90;;;;;;4872337;29;20232;-69
2022/01/08 08:10:17;;;;;;;18.00;11.55;;;3.10;99.90;;;;;;4878639;29;20584;-70
2022/01/08 08:12:44;;;;;;;24.35;12.52;;;3.20;99.90;;;;;;4871922;29;20307;-69
2022/01/08 08:15:15;;;;;;;19.15;11.38;;;3.20;99.90;;;;;;4871824;29;20210;-69
2022/01/08 08:17:42;;;;;;;19.30;12.52;;;3.20;99.90;;;;;;4870163;29;20209;-69
2022/01/08 08:20:10;;;;;;;25.02;12.80;;;3.10;99.90;;;;;;4860204;29;20224;-70
2022/01/08 08:22:36;;;;;;;16.73;10.48;;;3.20;99.90;;;;;;4874049;29;20347;-70
2022/01/08 08:25:04;;;;;;;20.33;11.02;;;3.20;99.90;;;;;;4875717;29;20220;-69
2022/01/08 08:27:32;;;;;;;14.75;10.60;;;3.20;99.90;;;;;;4877236;29;20709;-69
2022/01/08 08:29:59;;;;;;;19.38;9.80;;;3.20;99.90;;;;;;4877150;29;20861;-69
2022/01/08 08:32:26;;;;;;;13.82;10.00;;;3.20;99.90;;;;;;4875550;29;20235;-69
2022/01/08 08:34:52;;;;;;;14.07;10.57;;;3.20;99.90;;;;;;4861700;29;20340;-69
2022/01/08 08:37:19;;;;;;;15.02;10.02;;;3.20;99.90;;;;;;4868297;29;20256;-69
2022/01/08 08:39:46;;;;;;;14.13;8.98;;;3.20;99.90;;;;;;4860750;29;20261;-69
2022/01/08 08:42:13;;;;;;;15.45;9.75;;;3.20;99.90;;;;;;4866809;29;20232;-69
2022/01/08 08:44:41;;;;;;;12.25;8.60;;;3.20;99.90;;;;;;4892396;29;20215;-69
2022/01/08 08:47:08;;;;;;;13.90;10.00;;;3.30;99.90;;;;;;4896536;29;20235;-69
2022/01/08 08:49:35;;;;;;;27.83;9.30;;;3.30;99.90;;;;;;4881563;29;20260;-69
2022/01/08 08:52:01;;;;;;;12.73;9.32;;;3.40;99.90;;;;;;4869843;29;20228;-69
2022/01/08 08:54:28;;;;;;;17.65;10.52;;;3.40;99.90;;;;;;4886189;29;20215;-70
2022/01/08 08:56:55;;;;;;;17.85;10.38;;;3.40;99.90;;;;;;4890080;29;20271;-69
2022/01/08 08:59:23;;;;;;;12.60;9.60;;;3.30;99.90;;;;;;4880282;29;20207;-69
2022/01/08 09:01:51;;;;;;;19.88;12.05;;;3.30;99.90;;;;;;4896646;29;20275;-70
2022/01/08 09:04:18;;;;;;;22.23;11.38;;;3.40;99.90;;;;;;4873561;29;20213;-70
2022/01/08 09:06:44;;;;;;;15.52;10.32;;;3.40;99.90;;;;;;4859845;29;20248;-69
2022/01/08 09:09:11;;;;;;;14.27;10.10;;;3.40;99.90;;;;;;4859767;29;20651;-70
2022/01/08 09:11:38;;;;;;;16.08;9.38;;;3.40;99.90;;;;;;4863550;29;20251;-69
2022/01/08 09:14:04;;;;;;;15.40;9.48;;;3.40;99.90;;;;;;4875868;29;20280;-70
2022/01/08 09:16:31;;;;;;;12.93;9.35;;;3.40;99.90;;;;;;4865506;29;20212;-69
2022/01/08 09:18:59;;;;;;;14.82;11.05;;;3.50;99.90;;;;;;4878312;29;20212;-69
2022/01/08 09:21:27;;;;;;;16.73;10.18;;;3.50;99.90;;;;;;4877530;29;20568;-70
2022/01/08 09:23:54;;;;;;;13.57;8.80;;;3.50;99.90;;;;;;4877904;29;20618;-69
2022/01/08 09:26:21;;;;;;;15.57;9.20;;;3.50;99.90;;;;;;4876618;29;20683;-69
2022/01/08 09:28:48;;;;;;;14.20;9.25;;;3.50;99.90;;;;;;4886553;29;20601;-70
2022/01/08 09:31:17;;;;;;;13.50;9.43;;;3.50;99.90;;;;;;4874220;29;20288;-69
2022/01/08 09:33:43;;;;;;;11.90;8.90;;;3.50;99.90;;;;;;4875713;29;20216;-69
2022/01/08 09:36:11;;;;;;;15.05;10.50;;;3.50;99.90;;;;;;4875959;29;20208;-70
2022/01/08 09:38:38;;;;;;;17.58;9.38;;;3.50;99.90;;;;;;4869297;29;20205;-70
2022/01/08 09:41:05;;;;;;;14.20;9.40;;;3.50;99.90;;;;;;4875722;29;20284;-69
2022/01/08 09:43:32;;;;;;;12.38;9.73;;;3.60;99.90;;;;;;4871201;29;20310;-69
2022/01/08 09:45:59;;;;;;;14.10;10.32;;;3.60;99.90;;;;;;4877489;29;20303;-69
2022/01/08 09:48:26;;;;;;;20.42;13.43;;;3.60;99.90;;;;;;4862890;29;20642;-69
2022/01/08 09:50:52;;;;;;;18.92;11.55;;;3.60;99.90;;;;;;4871474;29;20239;-69
2022/01/08 09:53:21;;;;;;;18.45;10.43;;;3.70;99.90;;;;;;4873170;29;20235;-69
2022/01/08 09:55:48;;;;;;;17.23;11.93;;;3.70;99.90;;;;;;4867331;29;20565;-69
2022/01/08 09:58:15;;;;;;;12.95;9.40;;;3.70;99.90;;;;;;4871189;29;20219;-69
2022/01/08 10:00:45;;;;;;;14.07;9.55;;;3.80;99.90;;;;;;4863028;29;20241;-70
2022/01/08 10:03:17;;;;;;;13.70;9.43;;;3.80;99.90;;;;;;4874963;29;20207;-69
2022/01/08 10:05:45;;;;;;;16.48;9.98;;;3.80;99.90;;;;;;4870759;29;20211;-69
2022/01/08 10:08:14;;;;;;;13.63;10.57;;;3.80;99.90;;;;;;4871683;29;20232;-69
2022/01/08 10:10:54;;;;;;;16.35;11.65;;;3.80;99.90;;;;;;4870050;29;20227;-69
2022/01/08 10:13:24;;;;;;;16.25;10.98;;;3.90;99.90;;;;;;4876331;29;20211;-69
2022/01/08 10:18:38;;;;;;;14.32;10.98;;;4.00;99.90;;;;;;4877224;29;20214;-69
2022/01/08 10:21:17;;;;;;;18.60;11.07;;;4.00;99.90;;;;;;4861240;29;20729;-69
2022/01/08 10:23:46;;;;;;;26.52;16.40;;;4.00;99.90;;;;;;4870943;29;20208;-69
2022/01/08 10:26:17;;;;;;;13.18;9.75;;;4.00;99.90;;;;;;4876236;29;20211;-69
2022/01/08 10:28:47;;;;;;;14.57;10.68;;;4.00;99.90;;;;;;4875442;29;20240;-70
2022/01/08 10:31:16;;;;;;;19.80;13.20;;;4.00;99.90;;;;;;4884277;29;20228;-70
2022/01/08 10:33:45;;;;;;;12.25;9.77;;;4.00;99.90;;;;;;4869675;29;20216;-70
2022/01/08 10:36:13;;;;;;;11.18;9.45;;;4.10;99.90;;;;;;4875569;29;20651;-69
2022/01/08 10:38:40;;;;;;;23.85;11.77;;;4.10;99.90;;;;;;4867619;29;20260;-70
2022/01/08 10:41:15;;;;;;;8.73;7.80;;;4.10;99.90;;;;;;4875413;29;20714;-69
2022/01/08 10:43:44;;;;;;;11.00;8.20;;;4.20;99.90;;;;;;4871700;29;20220;-69
2022/01/08 10:46:14;;;;;;;13.88;8.07;;;4.20;99.90;;;;;;4874404;29;20211;-69
2022/01/08 10:48:49;;;;;;;11.10;8.30;;;4.20;99.90;;;;;;4873749;29;20227;-68
2022/01/08 10:51:19;;;;;;;15.55;9.57;;;4.20;99.90;;;;;;4872465;29;20231;-69
2022/01/08 10:54:09;;;;;;;14.32;7.15;;;4.20;99.90;;;;;;4864424;29;20208;-68
2022/01/08 10:56:39;;;;;;;9.75;6.75;;;4.20;99.90;;;;;;4872569;29;20323;-69
2022/01/08 10:59:12;;;;;;;16.92;9.77;;;4.30;99.90;;;;;;4861595;29;20212;-69
2022/01/08 11:01:48;;;;;;;11.27;8.48;;;4.30;99.90;;;;;;4861857;29;20239;-69
2022/01/08 11:04:17;;;;;;;9.13;8.20;;;4.40;99.90;;;;;;4879518;29;20262;-69
2022/01/08 11:06:53;;;;;;;12.00;8.02;;;4.40;99.90;;;;;;4865545;29;20314;-69
2022/01/08 11:09:21;;;;;;;10.68;7.65;;;4.40;99.90;;;;;;4864886;29;20235;-70
2022/01/08 11:11:50;;;;;;;10.38;7.70;;;4.50;99.90;;;;;;4868500;29;20589;-69
2022/01/08 11:14:47;;;;;;;9.55;8.18;;;4.50;99.90;;;;;;4862289;29;20235;-69
2022/01/08 11:17:19;;;;;;;10.75;7.63;;;4.50;99.90;;;;;;4864290;29;20215;-69
2022/01/08 11:19:48;;;;;;;14.82;8.43;;;4.50;99.90;;;;;;4878393;29;20214;-69
2022/01/08 11:22:17;;;;;;;8.95;8.05;;;4.50;99.90;;;;;;4879477;29;20591;-69
2022/01/08 11:24:51;;;;;;;9.10;7.07;;;4.50;99.90;;;;;;4889622;29;20227;-68
2022/01/08 11:27:23;;;;;;;11.30;9.52;;;4.50;99.90;;;;;;4875929;29;20401;-70
2022/01/08 11:30:03;;;;;;;8.80;7.90;;;4.60;99.90;;;;;;4875752;29;20260;-69
2022/01/08 11:32:31;;;;;;;11.90;8.07;;;4.60;99.90;;;;;;4881198;29;20227;-69
2022/01/08 11:34:58;;;;;;;9.65;8.07;;;4.50;99.90;;;;;;4884355;29;20218;-69
2022/01/08 11:37:25;;;;;;;9.48;7.88;;;4.50;99.90;;;;;;4880287;29;20721;-68
2022/01/08 11:39:53;;;;;;;11.98;9.57;;;4.50;99.90;;;;;;4879066;29;20208;-69
2022/01/08 11:42:22;;;;;;;10.23;8.20;;;4.50;99.90;;;;;;4884376;29;20293;-69
2022/01/08 11:44:52;;;;;;;11.15;8.32;;;4.60;99.90;;;;;;4880281;29;20247;-69
2022/01/08 11:47:21;;;;;;;13.75;8.70;;;4.60;99.90;;;;;;4879293;29;20212;-69
2022/01/08 11:49:48;;;;;;;9.07;8.18;;;4.60;99.90;;;;;;4889337;29;20223;-69
2022/01/08 11:52:21;;;;;;;8.77;7.30;;;4.60;99.90;;;;;;4897948;29;20663;-69
2022/01/08 11:54:50;;;;;;;10.80;8.13;;;4.50;99.90;;;;;;4898215;29;20716;-69
2022/01/08 11:57:18;;;;;;;14.52;9.70;;;4.50;99.90;;;;;;4885391;29;20217;-69
2022/01/08 11:59:47;;;;;;;11.75;10.32;;;4.50;99.90;;;;;;4878796;29;20587;-69
2022/01/08 12:02:14;;;;;;;18.40;12.35;;;4.60;99.90;;;;;;4879028;29;20243;-69
2022/01/08 12:04:44;;;;;;;13.15;9.35;;;4.60;99.90;;;;;;4878786;29;20557;-69
2022/01/08 12:07:34;;;;;;;11.18;8.98;;;4.60;99.90;;;;;;4879096;29;20239;-69
2022/01/08 12:10:16;;;;;;;12.40;8.75;;;4.60;99.90;;;;;;4881334;29;20204;-69
2022/01/08 12:12:45;;;;;;;12.48;8.95;;;4.60;99.90;;;;;;4860477;29;20216;-69
2022/01/08 12:15:13;;;;;;;12.52;10.27;;;4.60;99.90;;;;;;4860129;29;20216;-69
2022/01/08 12:18:01;;;;;;;17.25;9.45;;;4.60;99.90;;;;;;4868928;29;20583;-69
2022/01/08 12:20:42;;;;;;;14.35;11.35;;;4.60;99.90;;;;;;4874090;29;20212;-69
2022/01/08 12:23:32;;;;;;;10.30;9.20;;;4.60;99.90;;;;;;4879061;29;20846;-69
2022/01/08 12:26:02;;;;;;;12.18;11.00;;;4.60;99.90;;;;;;4878809;29;20219;-69
2022/01/08 12:28:54;;;;;;;14.77;11.55;;;4.70;99.90;;;;;;4877243;29;20240;-69
2022/01/08 12:31:41;;;;;;;14.45;10.52;;;4.60;99.90;;;;;;4878089;29;20235;-70
2022/01/08 12:34:44;;;;;;;15.90;11.38;;;4.60;99.90;;;;;;4877627;29;20302;-69
2022/01/08 12:37:13;;;;;;;18.40;12.65;;;4.60;99.90;;;;;;4868222;29;20218;-69
2022/01/08 12:39:54;;;;;;;16.63;13.40;;;4.60;99.90;;;;;;4877851;29;20208;-69
2022/01/08 12:42:38;;;;;;;14.88;10.85;;;4.60;99.90;;;;;;4878279;29;20295;-69
2022/01/08 12:45:12;;;;;;;16.77;9.77;;;4.60;99.90;;;;;;4876915;29;20212;-70
2022/01/08 12:47:44;;;;;;;19.30;12.80;;;4.60;99.90;;;;;;4875696;29;20207;-69
2022/01/08 12:50:25;;;;;;;17.95;11.38;;;4.60;99.90;;;;;;4896352;29;20231;-69
2022/01/08 12:53:15;;;;;;;17.73;13.00;;;4.50;99.90;;;;;;4896548;29;20700;-69
2022/01/08 12:55:44;;;;;;;14.32;11.02;;;4.60;99.90;;;;;;4892729;29;20204;-68
2022/01/08 12:58:15;;;;;;;24.35;17.15;;;4.60;99.90;;;;;;4884802;29;20557;-69
2022/01/08 13:00:55;;;;;;;13.60;9.73;;;4.60;99.90;;;;;;4881925;29;20326;-69
2022/01/08 13:03:26;;;;;;;25.70;14.50;;;4.60;99.90;;;;;;4895822;29;20659;-68
2022/01/08 13:05:53;;;;;;;15.73;11.15;;;4.60;99.90;;;;;;4896854;29;20222;-70
2022/01/08 13:08:24;;;;;;;17.05;13.02;;;4.60;99.90;;;;;;4882236;29;20263;-68
2022/01/08 13:10:56;;;;;;;19.30;13.90;;;4.60;99.90;;;;;;4878274;29;20251;-70
2022/01/08 13:13:24;;;;;;;14.40;11.80;;;4.60;99.90;;;;;;4877280;29;20208;-69
2022/01/08 13:15:51;;;;;;;16.75;11.43;;;4.60;99.90;;;;;;4877818;29;20682;-70
2022/01/08 13:18:19;;;;;;;15.38;11.65;;;4.60;99.90;;;;;;4877077;29;20211;-70
2022/01/08 13:20:48;;;;;;;14.75;11.02;;;4.50;99.90;;;;;;4877526;29;20957;-69
2022/01/08 13:23:15;;;;;;;17.67;12.63;;;4.50;99.90;;;;;;4877538;29;20267;-70
2022/01/08 13:25:42;;;;;;;21.67;14.20;;;4.50;99.90;;;;;;4877815;29;20232;-70
2022/01/08 13:28:08;;;;;;;24.45;15.77;;;4.50;99.90;;;;;;4877089;29;20244;-70
2022/01/08 13:30:36;;;;;;;16.45;12.70;;;4.50;99.90;;;;;;4876514;29;20234;-70
2022/01/08 13:33:05;;;;;;;15.10;12.27;;;4.40;99.90;;;;;;4887769;29;20207;-70
2022/01/08 13:35:33;;;;;;;19.73;13.13;;;4.40;99.90;;;;;;4895920;29;20211;-69
2022/01/08 13:38:01;;;;;;;14.55;12.18;;;4.40;99.90;;;;;;4885351;29;20300;-70
2022/01/08 13:40:28;;;;;;;21.77;13.48;;;4.40;99.90;;;;;;4876702;29;20211;-70
2022/01/08 13:42:55;;;;;;;34.75;21.05;;;4.40;99.90;;;;;;4877139;29;20235;-70
2022/01/08 13:45:25;;;;;;;25.50;16.25;;;4.30;99.90;;;;;;4874824;29;20211;-69
2022/01/08 13:47:54;;;;;;;25.38;12.93;;;4.30;99.90;;;;;;4864083;29;20204;-70
2022/01/08 13:50:25;;;;;;;30.10;15.40;;;4.40;99.90;;;;;;4877575;29;20315;-69
2022/01/08 13:52:57;;;;;;;19.50;12.63;;;4.40;99.90;;;;;;4882022;29;20211;-69
2022/01/08 13:55:28;;;;;;;24.80;14.18;;;4.40;99.90;;;;;;4892483;29;20684;-69
2022/01/08 13:58:07;;;;;;;19.67;12.10;;;4.30;99.90;;;;;;4887999;29;20597;-69
2022/01/08 14:00:36;;;;;;;16.00;13.15;;;4.30;99.90;;;;;;4886933;29;20208;-69
2022/01/08 14:03:04;;;;;;;15.55;12.07;;;4.30;99.90;;;;;;4885958;29;20208;-69
2022/01/08 14:05:31;;;;;;;16.75;11.10;;;4.20;99.90;;;;;;4877307;29;20212;-69
2022/01/08 14:08:07;;;;;;;12.73;10.52;;;4.20;99.90;;;;;;4873169;29;20215;-69
2022/01/08 14:10:40;;;;;;;18.33;11.90;;;4.20;99.90;;;;;;4875213;29;20285;-68
2022/01/08 14:13:09;;;;;;;15.02;11.05;;;4.20;99.90;;;;;;4877081;29;20341;-69
2022/01/08 14:15:38;;;;;;;16.38;11.57;;;4.30;99.90;;;;;;4876302;29;20336;-68
2022/01/08 14:18:09;;;;;;;12.05;10.77;;;4.30;99.90;;;;;;4882007;29;20211;-68
2022/01/08 14:20:36;;;;;;;13.75;11.63;;;4.30;99.90;;;;;;4881810;29;20224;-68
2022/01/08 14:23:10;;;;;;;18.65;11.50;;;4.30;99.90;;;;;;4873442;29;20263;-70
2022/01/08 14:25:39;;;;;;;15.07;9.90;;;4.30;99.90;;;;;;4877107;29;20206;-70
2022/01/08 14:28:20;;;;;;;16.38;11.18;;;4.30;99.90;;;;;;4883724;29;20209;-69
2022/01/08 14:30:48;;;;;;;12.93;9.73;;;4.30;99.90;;;;;;4874704;29;20284;-70
2022/01/08 14:33:14;;;;;;;12.93;9.82;;;4.30;99.90;;;;;;4876964;29;20203;-70
2022/01/08 14:35:42;;;;;;;18.38;10.07;;;4.30;99.90;;;;;;4893887;29;20262;-69
2022/01/08 14:38:08;;;;;;;11.93;9.60;;;4.30;99.90;;;;;;4884320;29;20208;-70
2022/01/08 14:40:36;;;;;;;13.65;9.65;;;4.30;99.90;;;;;;4875861;29;20244;-70
2022/01/08 14:43:06;;;;;;;15.55;10.90;;;4.30;99.90;;;;;;4876659;29;20666;-70
2022/01/08 14:45:35;;;;;;;18.95;9.90;;;4.20;99.90;;;;;;4876611;29;20219;-70
2022/01/08 14:48:03;;;;;;;17.92;10.93;;;4.20;99.90;;;;;;4876203;29;20299;-69
2022/01/08 14:50:31;;;;;;;13.07;9.90;;;4.20;99.90;;;;;;4876372;29;20232;-70
2022/01/08 14:53:00;;;;;;;14.82;9.75;;;4.20;99.90;;;;;;4879702;29;20207;-70
2022/01/08 14:55:32;;;;;;;10.20;7.78;;;4.20;99.90;;;;;;4877625;29;20234;-68
2022/01/08 14:57:59;;;;;;;12.30;8.43;;;4.20;99.90;;;;;;4875932;29;20657;-69
2022/01/08 15:00:28;;;;;;;14.45;8.93;;;4.10;99.90;;;;;;4876153;29;20204;-69
2022/01/08 15:02:55;;;;;;;10.88;8.27;;;4.10;99.90;;;;;;4876014;29;20212;-69
2022/01/08 15:05:22;;;;;;;18.75;11.25;;;4.10;99.90;;;;;;4876685;29;20212;-68
2022/01/08 15:07:50;;;;;;;13.75;10.75;;;4.10;99.90;;;;;;4870722;29;20284;-69
2022/01/08 15:10:17;;;;;;;24.33;15.90;;;4.10;99.90;;;;;;4867124;29;20900;-69
2022/01/08 15:12:44;;;;;;;12.75;10.73;;;4.00;99.90;;;;;;4876715;29;20204;-69
2022/01/08 15:15:12;;;;;;;11.82;9.68;;;4.10;99.90;;;;;;4866099;29;20204;-69
2022/01/08 15:17:40;;;;;;;11.50;9.95;;;4.00;99.90;;;;;;4876258;29;20212;-69
2022/01/08 15:20:10;;;;;;;13.07;8.20;;;4.00;99.90;;;;;;4876164;29;20210;-69
2022/01/08 15:22:38;;;;;;;13.18;11.30;;;4.10;99.90;;;;;;4876131;29;20302;-69
2022/01/08 15:25:06;;;;;;;16.40;10.73;;;4.10;99.90;;;;;;4869854;29;20212;-69
2022/01/08 15:27:33;;;;;;;11.68;8.32;;;4.10;99.90;;;;;;4879328;29;20227;-69
2022/01/08 15:30:00;;;;;;;16.15;9.07;;;4.10;99.90;;;;;;4872843;29;20255;-69
2022/01/08 15:32:26;;;;;;;15.80;8.23;;;4.10;99.90;;;;;;4873624;29;20757;-69
2022/01/08 15:34:54;;;;;;;18.67;10.63;;;4.10;99.90;;;;;;4871217;29;21134;-69
2022/01/08 15:37:21;;;;;;;16.33;9.65;;;4.10;99.90;;;;;;4875598;29;20216;-70
2022/01/08 15:39:48;;;;;;;10.95;8.82;;;4.10;99.90;;;;;;4875965;29;20272;-70
2022/01/08 15:42:14;;;;;;;16.42;9.20;;;4.10;99.90;;;;;;4879622;29;20283;-70
2022/01/08 15:44:44;;;;;;;13.00;10.55;;;4.00;99.90;;;;;;4876339;29;20302;-70
2022/01/08 15:47:11;;;;;;;17.05;9.65;;;4.00;99.90;;;;;;4878430;29;20211;-70
2022/01/08 15:49:38;;;;;;;13.32;9.20;;;4.00;99.90;;;;;;4871696;29;20247;-69
2022/01/08 15:52:06;;;;;;;13.48;9.40;;;4.00;99.90;;;;;;4871768;29;20238;-69
2022/01/08 15:54:33;;;;;;;16.70;9.52;;;4.00;99.90;;;;;;4871592;29;20259;-69
2022/01/08 15:56:59;;;;;;;17.75;11.65;;;3.90;99.90;;;;;;4870456;29;20285;-69
2022/01/08 15:59:26;;;;;;;15.50;10.05;;;3.90;99.90;;;;;;4872407;29;20215;-69
2022/01/08 16:01:53;;;;;;;19.83;10.95;;;3.90;99.90;;;;;;4874683;29;20655;-70
2022/01/08 16:04:19;;;;;;;15.93;10.40;;;3.90;99.90;;;;;;4877557;29;20585;-69
2022/01/08 16:06:46;;;;;;;11.90;6.70;;;3.80;99.90;;;;;;4883199;29;20541;-69
2022/01/08 16:09:14;;;;;;;15.50;9.77;;;3.80;99.90;;;;;;4875645;29;20236;-69
2022/01/08 16:11:41;;;;;;;14.07;9.32;;;3.80;99.90;;;;;;4874076;29;20557;-69
2022/01/08 16:14:07;;;;;;;20.83;10.80;;;3.80;99.90;;;;;;4872604;29;20213;-69
2022/01/08 16:16:34;;;;;;;13.85;8.98;;;3.70;99.90;;;;;;4876376;29;20224;-70
2022/01/08 16:19:01;;;;;;;13.88;9.10;;;3.70;99.90;;;;;;4868910;29;20208;-70
2022/01/08 16:21:29;;;;;;;12.15;8.57;;;3.70;99.90;;;;;;4877704;29;20239;-69
2022/01/08 16:23:55;;;;;;;13.32;10.00;;;3.70;99.90;;;;;;4878901;29;20215;-69
2022/01/08 16:26:23;;;;;;;11.65;8.23;;;3.70;99.90;;;;;;4871282;29;20216;-70
2022/01/08 16:28:50;;;;;;;11.05;8.80;;;3.70;99.90;;;;;;4877777;29;20212;-70
2022/01/08 16:31:22;;;;;;;12.23;8.73;;;3.60;99.90;;;;;;4882225;29;20247;-70
2022/01/08 16:33:50;;;;;;;20.80;8.80;;;3.60;99.90;;;;;;4874425;29;20204;-70
2022/01/08 16:36:17;;;;;;;12.02;9.80;;;3.60;99.90;;;;;;4887266;29;20586;-70
2022/01/08 16:38:44;;;;;;;12.85;10.38;;;3.60;99.90;;;;;;4893795;29;20208;-69
2022/01/08 16:41:11;;;;;;;21.35;13.70;;;3.50;99.90;;;;;;4875957;29;20780;-70
2022/01/08 16:43:39;;;;;;;19.77;12.52;;;3.50;99.90;;;;;;4876503;29;20223;-69
2022/01/08 16:46:07;;;;;;;23.70;15.15;;;3.50;99.90;;;;;;4871342;29;20213;-69
2022/01/08 16:48:34;;;;;;;23.50;11.48;;;3.50;99.90;;;;;;4873605;29;20213;-69
2022/01/08 16:51:01;;;;;;;16.52;9.57;;;3.40;99.90;;;;;;4872339;29;20239;-70
2022/01/08 16:53:28;;;;;;;22.90;13.15;;;3.40;99.90;;;;;;4873937;29;20216;-69
2022/01/08 16:55:55;;;;;;;16.65;9.63;;;3.40;99.90;;;;;;4888662;29;20210;-69
2022/01/08 16:58:21;;;;;;;11.05;9.32;;;3.40;99.90;;;;;;4873746;29;20208;-69
2022/01/08 17:00:49;;;;;;;12.98;9.30;;;3.30;99.90;;;;;;4874377;29;22073;-68
2022/01/08 17:03:16;;;;;;;22.58;10.55;;;3.30;99.90;;;;;;4873129;29;20211;-69
2022/01/08 17:05:43;;;;;;;11.35;9.75;;;3.30;99.90;;;;;;4873132;29;20220;-70
2022/01/08 17:08:11;;;;;;;20.17;11.02;;;3.30;99.90;;;;;;4875670;29;20214;-69
2022/01/08 17:10:38;;;;;;;11.65;8.60;;;3.20;99.90;;;;;;4878562;29;20246;-69
2022/01/08 17:13:05;;;;;;;16.23;10.48;;;3.20;99.90;;;;;;4871209;29;20665;-70
2022/01/08 17:15:33;;;;;;;14.57;10.57;;;3.10;99.90;;;;;;4869996;29;20367;-69
2022/01/08 17:18:01;;;;;;;18.88;11.27;;;3.10;99.90;;;;;;4878739;29;20303;-70
2022/01/08 17:20:29;;;;;;;13.50;10.32;;;3.10;99.90;;;;;;4866818;29;20231;-70
2022/01/08 17:22:56;;;;;;;14.93;10.15;;;3.00;99.90;;;;;;4874152;29;20208;-70
2022/01/08 17:25:23;;;;;;;16.58;9.23;;;3.00;99.90;;;;;;4877511;29;20204;-69
2022/01/08 17:27:49;;;;;;;17.45;10.13;;;3.00;99.90;;;;;;4878045;29;20212;-70
2022/01/08 17:30:18;;;;;;;13.30;9.68;;;3.00;99.90;;;;;;4877219;29;20236;-70
2022/01/08 17:32:44;;;;;;;14.48;8.10;;;3.00;99.90;;;;;;4877435;29;20204;-69
2022/01/08 17:35:13;;;;;;;12.48;9.25;;;3.00;99.90;;;;;;4878201;29;20219;-70
2022/01/08 17:37:40;;;;;;;17.80;9.90;;;3.00;99.90;;;;;;4877497;29;20208;-70
2022/01/08 17:40:08;;;;;;;11.60;8.40;;;3.00;99.90;;;;;;4871844;29;20643;-68
2022/01/08 17:42:35;;;;;;;18.30;9.70;;;2.90;99.90;;;;;;4878313;29;20246;-70
2022/01/08 17:45:02;;;;;;;14.52;9.90;;;2.90;99.90;;;;;;4874626;29;20243;-69
2022/01/08 17:47:29;;;;;;;14.75;9.40;;;2.90;99.90;;;;;;4864049;29;20455;-69
2022/01/08 17:49:55;;;;;;;15.15;8.57;;;2.90;99.90;;;;;;4873357;29;20224;-68
2022/01/08 17:52:24;;;;;;;16.77;9.57;;;2.90;99.90;;;;;;4874252;29;20723;-69
2022/01/08 17:54:50;;;;;;;14.75;9.95;;;2.80;99.90;;;;;;4874471;29;20219;-69